createdAt,value
2022-12-01T00:01:35.868Z,43.60
2022-12-01T00:04:07.453Z,43.83
2022-12-01T00:06:37.463Z,44.93
2022-12-01T00:09:25.023Z,43.70
2022-12-01T00:11:54.774Z,42.80
2022-12-01T00:14:21.720Z,45.10
2022-12-01T00:16:54.144Z,44.00
2022-12-01T00:19:25.753Z,43.30
2022-12-01T00:21:55.057Z,41.60
2022-12-01T00:24:25.365Z,43.90
2022-12-01T00:26:54.736Z,45.10
2022-12-01T00:29:22.070Z,43.80
2022-12-01T00:31:49.128Z,43.37
2022-12-01T00:34:24.498Z,43.73
2022-12-01T00:36:54.016Z,42.90
2022-12-01T00:39:21.243Z,43.43
2022-12-01T00:41:48.234Z,43.27
2022-12-01T00:44:18.467Z,43.50
2022-12-01T00:46:45.891Z,43.30
2022-12-01T00:49:13.841Z,40.80
2022-12-01T00:51:43.284Z,44.23
2022-12-01T00:54:10.222Z,44.17
2022-12-01T00:56:37.323Z,43.97
2022-12-01T00:59:04.309Z,44.17
2022-12-01T01:01:31.447Z,44.63
2022-12-01T01:03:58.815Z,44.93
2022-12-01T01:06:28.854Z,43.40
2022-12-01T01:09:01.378Z,45.07
2022-12-01T01:11:30.429Z,44.07
2022-12-01T01:14:01.763Z,45.23
2022-12-01T01:16:31.434Z,42.23
2022-12-01T01:18:58.714Z,44.67
2022-12-01T01:21:26.784Z,44.33
2022-12-01T01:23:55.579Z,42.70
2022-12-01T01:26:28.596Z,45.73
2022-12-01T01:29:03.479Z,44.80
2022-12-01T01:31:33.243Z,45.23
2022-12-01T01:34:05.879Z,44.10
2022-12-01T01:36:33.096Z,44.87
2022-12-01T01:39:01.762Z,45.63
2022-12-01T01:41:29.039Z,44.67
2022-12-01T01:44:02.997Z,42.50
2022-12-01T01:46:34.523Z,44.17
2022-12-01T01:49:22.571Z,44.07
2022-12-01T01:51:55.248Z,41.63
2022-12-01T01:54:51.408Z,44.07
2022-12-01T01:57:31.257Z,45.87
2022-12-01T02:00:14.605Z,42.90
2022-12-01T02:02:44.830Z,43.07
2022-12-01T02:05:27.582Z,45.00
2022-12-01T02:07:57.963Z,44.03
2022-12-01T02:10:56.786Z,45.80
2022-12-01T02:14:06.176Z,44.60
2022-12-01T02:16:55.402Z,43.70
2022-12-01T02:19:43.174Z,45.03
2022-12-01T02:22:42.895Z,45.10
2022-12-01T02:26:02.235Z,45.43
2022-12-01T02:29:02.737Z,47.30
2022-12-01T02:31:52.112Z,45.37
2022-12-01T02:34:47.029Z,45.50
2022-12-01T02:37:32.096Z,45.77
2022-12-01T02:40:24.003Z,47.60
2022-12-01T02:43:13.191Z,47.43
2022-12-01T02:46:11.395Z,45.77
2022-12-01T02:48:43.100Z,47.27
2022-12-01T02:51:33.847Z,47.67
2022-12-01T02:54:03.171Z,45.90
2022-12-01T02:56:30.102Z,48.10
2022-12-01T02:58:57.183Z,47.47
2022-12-01T03:01:39.277Z,45.33
2022-12-01T03:04:15.415Z,45.40
2022-12-01T03:06:52.411Z,48.57
2022-12-01T03:10:06.087Z,45.13
2022-12-01T03:12:47.488Z,44.90
2022-12-01T03:15:41.445Z,45.60
2022-12-01T03:18:32.455Z,49.53
2022-12-01T03:21:20.084Z,47.93
2022-12-01T03:24:02.771Z,45.77
2022-12-01T03:26:37.059Z,44.67
2022-12-01T03:29:19.132Z,47.27
2022-12-01T03:31:57.024Z,48.23
2022-12-01T03:34:26.745Z,46.90
2022-12-01T03:37:01.353Z,47.13
2022-12-01T03:39:35.435Z,48.00
2022-12-01T03:42:16.073Z,47.80
2022-12-01T03:44:57.760Z,47.87
2022-12-01T03:47:32.364Z,51.53
2022-12-01T03:50:00.666Z,48.40
2022-12-01T03:52:46.859Z,50.30
2022-12-01T03:55:32.318Z,47.80
2022-12-01T03:58:44.898Z,46.67
2022-12-01T04:01:14.581Z,48.00
2022-12-01T04:03:47.969Z,46.00
2022-12-01T04:06:18.163Z,47.70
2022-12-01T04:08:45.256Z,48.40
2022-12-01T04:11:32.858Z,51.20
2022-12-01T04:14:03.001Z,50.43
2022-12-01T04:16:32.412Z,50.90
2022-12-01T04:18:59.367Z,49.67
2022-12-01T04:21:28.462Z,51.63
2022-12-01T04:24:01.602Z,50.40
2022-12-01T04:26:34.535Z,47.00
2022-12-01T04:29:07.959Z,42.97
2022-12-01T04:31:37.543Z,41.87
2022-12-01T04:34:09.658Z,39.00
2022-12-01T04:36:36.631Z,39.60
2022-12-01T04:39:06.309Z,38.77
2022-12-01T04:41:35.571Z,37.53
2022-12-01T04:44:05.263Z,36.70
2022-12-01T04:46:32.305Z,37.90
2022-12-01T04:48:59.236Z,37.57
2022-12-01T04:51:31.036Z,38.00
2022-12-01T04:53:58.086Z,40.70
2022-12-01T04:56:25.133Z,37.50
2022-12-01T04:58:52.235Z,39.57
2022-12-01T05:01:22.703Z,38.73
2022-12-01T05:03:52.270Z,40.77
2022-12-01T05:06:23.864Z,38.27
2022-12-01T05:08:51.958Z,35.03
2022-12-01T05:11:23.834Z,36.90
2022-12-01T05:13:51.180Z,36.47
2022-12-01T05:16:23.316Z,37.27
2022-12-01T05:19:20.923Z,37.60
2022-12-01T05:21:51.806Z,38.00
2022-12-01T05:24:22.888Z,37.07
2022-12-01T05:26:49.834Z,37.53
2022-12-01T05:29:19.475Z,37.50
2022-12-01T05:31:47.353Z,39.00
2022-12-01T05:34:14.749Z,38.47
2022-12-01T05:36:42.038Z,37.40
2022-12-01T05:39:09.433Z,36.60
2022-12-01T05:41:36.737Z,38.70
2022-12-01T05:44:04.207Z,37.47
2022-12-01T05:46:33.611Z,37.63
2022-12-01T05:49:03.367Z,37.03
2022-12-01T05:51:33.399Z,36.67
2022-12-01T05:54:01.952Z,37.80
2022-12-01T05:56:29.018Z,38.13
2022-12-01T05:58:56.220Z,38.93
2022-12-01T06:01:23.376Z,38.83
2022-12-01T06:03:52.586Z,38.20
2022-12-01T06:06:20.248Z,38.00
2022-12-01T06:08:52.821Z,36.90
2022-12-01T06:11:20.161Z,39.90
2022-12-01T06:13:47.028Z,37.27
2022-12-01T06:16:13.992Z,35.83
2022-12-01T06:18:40.977Z,36.80
2022-12-01T06:21:08.115Z,37.80
2022-12-01T06:23:37.483Z,37.60
2022-12-01T06:26:07.365Z,34.47
2022-12-01T06:28:34.619Z,36.63
2022-12-01T06:31:09.037Z,35.50
2022-12-01T06:33:38.152Z,35.20
2022-12-01T06:36:07.011Z,36.00
2022-12-01T06:38:37.786Z,36.67
2022-12-01T06:41:08.432Z,35.57
2022-12-01T06:43:38.655Z,34.30
2022-12-01T06:46:08.692Z,36.27
2022-12-01T06:48:35.738Z,34.40
2022-12-01T06:51:03.223Z,33.90
2022-12-01T06:53:33.066Z,34.60
2022-12-01T06:56:04.817Z,35.27
2022-12-01T06:58:34.926Z,35.93
2022-12-01T07:01:12.160Z,38.10
2022-12-01T07:03:47.458Z,39.53
2022-12-01T07:06:14.583Z,38.03
2022-12-01T07:08:41.624Z,39.37
2022-12-01T07:11:15.010Z,38.03
2022-12-01T07:13:45.268Z,39.80
2022-12-01T07:16:12.775Z,37.80
2022-12-01T07:18:40.491Z,39.40
2022-12-01T07:21:13.210Z,34.47
2022-12-01T07:23:43.094Z,35.40
2022-12-01T07:26:12.564Z,35.43
2022-12-01T07:28:39.603Z,34.57
2022-12-01T07:31:18.744Z,35.40
2022-12-01T07:33:45.963Z,35.73
2022-12-01T07:36:13.954Z,36.20
2022-12-01T07:38:41.662Z,35.27
2022-12-01T07:41:19.071Z,33.13
2022-12-01T07:43:49.981Z,32.80
2022-12-01T07:46:24.218Z,30.73
2022-12-01T07:48:52.924Z,31.70
2022-12-01T07:51:24.263Z,29.60
2022-12-01T07:53:55.098Z,31.10
2022-12-01T07:56:23.138Z,30.80
2022-12-01T07:58:52.609Z,31.13
2022-12-01T08:01:23.839Z,33.50
2022-12-01T08:03:54.303Z,34.00
2022-12-01T08:06:22.656Z,35.77
2022-12-01T08:08:50.241Z,32.20
2022-12-01T08:11:24.829Z,32.17
2022-12-01T08:13:54.588Z,31.70
2022-12-01T08:16:25.809Z,33.23
2022-12-01T08:18:53.450Z,27.30
2022-12-01T08:21:23.634Z,26.87
2022-12-01T08:23:56.533Z,29.03
2022-12-01T08:26:25.749Z,29.60
2022-12-01T08:28:52.812Z,24.73
2022-12-01T08:31:29.016Z,25.63
2022-12-01T08:33:56.379Z,24.70
2022-12-01T08:36:26.317Z,22.97
2022-12-01T08:38:55.855Z,25.17
2022-12-01T08:41:24.638Z,23.80
2022-12-01T08:43:59.820Z,24.10
2022-12-01T08:46:32.410Z,23.50
2022-12-01T08:49:04.028Z,24.30
2022-12-01T08:51:33.901Z,23.23
2022-12-01T08:54:03.372Z,23.83
2022-12-01T08:56:44.349Z,24.97
2022-12-01T08:59:11.966Z,23.33
2022-12-01T09:01:53.571Z,25.10
2022-12-01T09:04:25.168Z,23.33
2022-12-01T09:06:54.983Z,22.50
2022-12-01T09:09:28.447Z,23.37
2022-12-01T09:11:59.947Z,23.90
2022-12-01T09:14:29.929Z,22.50
2022-12-01T09:16:57.093Z,22.30
2022-12-01T09:19:28.516Z,22.43
2022-12-01T09:21:55.506Z,22.17
2022-12-01T09:24:23.114Z,24.77
2022-12-01T09:26:50.413Z,23.77
2022-12-01T09:29:17.497Z,22.80
2022-12-01T09:31:47.218Z,24.30
2022-12-01T09:34:19.819Z,24.40
2022-12-01T09:36:47.842Z,23.80
2022-12-01T09:39:21.188Z,24.07
2022-12-01T09:42:09.183Z,27.13
2022-12-01T09:44:39.093Z,27.80
2022-12-01T09:47:40.118Z,28.30
2022-12-01T09:50:24.076Z,27.50
2022-12-01T09:53:08.918Z,28.27
2022-12-01T09:55:36.273Z,31.03
2022-12-01T09:58:07.290Z,28.77
2022-12-01T10:00:44.016Z,29.37
2022-12-01T10:03:36.451Z,31.13
2022-12-01T10:06:28.499Z,32.77
2022-12-01T10:09:30.147Z,30.87
2022-12-01T10:12:16.905Z,33.07
2022-12-01T10:14:50.459Z,29.80
2022-12-01T10:18:05.383Z,31.23
2022-12-01T10:20:41.386Z,29.90
2022-12-01T10:23:39.607Z,28.47
2022-12-01T10:26:31.407Z,28.73
2022-12-01T10:29:07.051Z,29.20
2022-12-01T10:32:03.292Z,30.80
2022-12-01T10:34:42.215Z,31.60
2022-12-01T10:37:28.050Z,32.17
2022-12-01T10:40:00.443Z,32.90
2022-12-01T10:42:39.567Z,30.30
2022-12-01T10:45:24.206Z,30.00
2022-12-01T10:48:23.527Z,32.67
2022-12-01T10:51:13.913Z,29.27
2022-12-01T10:53:41.051Z,30.13
2022-12-01T10:56:10.981Z,32.37
2022-12-01T10:58:50.117Z,32.93
2022-12-01T11:01:26.850Z,29.43
2022-12-01T11:04:35.518Z,32.00
2022-12-01T11:07:04.211Z,31.33
2022-12-01T11:09:35.896Z,33.33
2022-12-01T11:12:05.129Z,35.53
2022-12-01T11:14:47.952Z,35.60
2022-12-01T11:17:40.173Z,31.63
2022-12-01T11:20:40.012Z,32.90
2022-12-01T11:23:10.053Z,29.67
2022-12-01T11:25:38.108Z,34.40
2022-12-01T11:28:09.084Z,34.00
2022-12-01T11:30:36.169Z,32.70
2022-12-01T11:33:05.668Z,29.87
2022-12-01T11:35:37.995Z,31.53
2022-12-01T11:38:29.322Z,33.00
2022-12-01T11:41:00.894Z,35.37
2022-12-01T11:43:30.678Z,34.50
2022-12-01T11:46:03.688Z,34.27
2022-12-01T11:48:36.869Z,28.93
2022-12-01T11:51:27.054Z,30.37
2022-12-01T11:54:28.142Z,29.73
2022-12-01T11:57:31.869Z,28.70
2022-12-01T11:59:42.572Z,29.13
2022-12-01T12:02:53.352Z,28.63
2022-12-01T12:05:42.780Z,27.80
2022-12-01T12:08:58.636Z,28.33
2022-12-01T12:12:02.010Z,31.87
2022-12-01T12:14:55.145Z,27.07
2022-12-01T12:17:58.297Z,27.07
2022-12-01T12:20:41.076Z,25.10
2022-12-01T12:23:44.851Z,25.93
2022-12-01T12:26:24.428Z,24.17
2022-12-01T12:29:03.286Z,25.17
2022-12-01T12:31:33.069Z,24.50
2022-12-01T12:34:22.319Z,26.70
2022-12-01T12:37:41.894Z,25.27
2022-12-01T12:40:24.719Z,24.90
2022-12-01T12:43:04.138Z,25.67
2022-12-01T12:46:11.415Z,26.87
2022-12-01T12:52:08.116Z,23.77
2022-12-01T12:55:12.326Z,26.13
2022-12-01T12:57:58.293Z,25.87
2022-12-01T13:00:30.086Z,25.20
2022-12-01T13:03:12.481Z,26.90
2022-12-01T13:05:52.861Z,27.43
2022-12-01T13:08:48.282Z,24.93
2022-12-01T13:11:41.205Z,23.33
2022-12-01T13:14:39.435Z,23.93
2022-12-01T13:17:23.417Z,23.70
2022-12-01T13:19:50.671Z,23.10
2022-12-01T13:22:24.301Z,24.70
2022-12-01T13:24:51.344Z,25.40
2022-12-01T13:27:24.260Z,26.83
2022-12-01T13:29:54.379Z,23.50
2022-12-01T13:32:34.864Z,24.27
2022-12-01T13:35:08.391Z,25.00
2022-12-01T13:37:38.587Z,23.07
2022-12-01T13:40:19.399Z,22.67
2022-12-01T13:45:49.830Z,24.00
2022-12-01T13:48:40.456Z,22.80
2022-12-01T13:51:07.572Z,22.80
2022-12-01T13:53:40.628Z,23.73
2022-12-01T13:56:39.376Z,25.00
2022-12-01T14:00:00.727Z,26.03
2022-12-01T14:02:33.460Z,27.00
2022-12-01T14:05:22.241Z,24.90
2022-12-01T14:07:56.750Z,23.67
2022-12-01T14:10:53.240Z,23.80
2022-12-01T14:13:22.621Z,24.03
2022-12-01T14:16:03.849Z,25.47
2022-12-01T14:18:35.160Z,24.90
2022-12-01T14:21:08.922Z,26.07
2022-12-01T14:23:58.807Z,24.70
2022-12-01T14:26:28.537Z,25.67
2022-12-01T14:28:57.572Z,25.23
2022-12-01T14:31:49.823Z,23.50
2022-12-01T14:34:28.640Z,25.17
2022-12-01T14:37:03.830Z,29.73
2022-12-01T14:39:42.422Z,27.83
2022-12-01T14:42:43.392Z,26.47
2022-12-01T14:45:22.598Z,26.87
2022-12-01T14:48:20.143Z,27.33
2022-12-01T14:51:05.840Z,27.80
2022-12-01T14:53:36.633Z,28.37
2022-12-01T14:56:26.033Z,27.10
2022-12-01T14:59:01.742Z,26.20
2022-12-01T15:01:40.213Z,27.30
2022-12-01T15:04:11.659Z,27.00
2022-12-01T15:06:38.971Z,27.70
2022-12-01T15:12:07.689Z,27.50
2022-12-01T15:14:47.961Z,27.30
2022-12-01T15:17:37.044Z,30.73
2022-12-01T15:20:31.961Z,30.07
2022-12-01T15:23:00.182Z,34.53
2022-12-01T15:25:35.320Z,30.90
2022-12-01T15:28:22.614Z,31.53
2022-12-01T15:30:54.816Z,29.77
2022-12-01T15:33:36.960Z,31.10
2022-12-01T15:36:05.644Z,32.77
2022-12-01T15:38:37.258Z,30.30
2022-12-01T15:41:29.623Z,32.77
2022-12-01T15:44:08.303Z,34.17
2022-12-01T15:46:35.187Z,34.43
2022-12-01T15:49:27.931Z,32.67
2022-12-01T15:52:10.394Z,28.47
2022-12-01T15:54:38.266Z,32.40
2022-12-01T15:57:06.886Z,31.97
2022-12-01T15:59:44.791Z,32.90
2022-12-01T16:02:31.929Z,31.40
2022-12-01T16:05:22.364Z,34.13
2022-12-01T16:10:41.507Z,31.30
2022-12-01T16:13:48.899Z,32.13
2022-12-01T16:17:03.153Z,34.20
2022-12-01T16:19:35.965Z,31.17
2022-12-01T16:22:11.790Z,33.27
2022-12-01T16:24:53.579Z,30.10
2022-12-01T16:27:31.731Z,31.70
2022-12-01T16:30:03.573Z,31.03
2022-12-01T16:32:41.362Z,31.47
2022-12-01T16:35:30.877Z,29.83
2022-12-01T16:37:59.238Z,31.67
2022-12-01T16:40:31.794Z,31.50
2022-12-01T16:43:00.818Z,34.07
2022-12-01T16:45:27.675Z,32.80
2022-12-01T16:48:03.565Z,32.40
2022-12-01T16:50:33.922Z,33.30
2022-12-01T16:53:00.900Z,31.63
2022-12-01T16:55:41.855Z,35.07
2022-12-01T16:58:09.368Z,35.30
2022-12-01T17:00:38.621Z,34.47
2022-12-01T17:03:07.304Z,32.27
2022-12-01T17:05:34.713Z,31.90
2022-12-01T17:08:04.200Z,32.30
2022-12-01T17:10:34.230Z,31.97
2022-12-01T17:13:05.972Z,33.60
2022-12-01T17:15:33.072Z,30.57
2022-12-01T17:18:00.351Z,35.20
2022-12-01T17:20:29.342Z,31.37
2022-12-01T17:22:56.369Z,31.83
2022-12-01T17:25:23.326Z,31.77
2022-12-01T17:27:52.687Z,32.40
2022-12-01T17:30:19.629Z,29.37
2022-12-01T17:32:49.250Z,31.50
2022-12-01T17:35:19.284Z,33.60
2022-12-01T17:37:49.270Z,30.23
2022-12-01T17:40:18.520Z,30.70
2022-12-01T17:42:50.277Z,31.40
2022-12-01T17:45:18.975Z,32.63
2022-12-01T17:47:46.287Z,31.90
2022-12-01T17:50:13.577Z,36.83
2022-12-01T17:52:40.964Z,34.00
2022-12-01T17:55:09.269Z,34.80
2022-12-01T17:57:36.216Z,35.87
2022-12-01T18:00:07.567Z,34.90
2022-12-01T18:02:39.241Z,35.70
2022-12-01T18:05:06.888Z,34.00
2022-12-01T18:07:34.044Z,36.37
2022-12-01T18:10:00.997Z,37.00
2022-12-01T18:12:28.023Z,32.27
2022-12-01T18:14:54.990Z,34.10
2022-12-01T18:17:24.024Z,36.10
2022-12-01T18:19:54.060Z,34.10
2022-12-01T18:22:25.621Z,32.90
2022-12-01T18:24:57.629Z,37.03
2022-12-01T18:27:27.218Z,32.10
2022-12-01T18:29:54.219Z,34.83
2022-12-01T18:32:21.359Z,32.50
2022-12-01T18:34:48.768Z,34.23
2022-12-01T18:37:16.082Z,33.97
2022-12-01T18:39:43.039Z,31.60
2022-12-01T18:42:10.070Z,33.20
2022-12-01T18:44:38.879Z,31.60
2022-12-01T18:47:06.614Z,32.30
2022-12-01T18:49:33.811Z,32.27
2022-12-01T18:52:00.808Z,31.67
2022-12-01T18:54:27.960Z,32.63
2022-12-01T18:56:58.651Z,34.27
2022-12-01T18:59:33.278Z,32.10
2022-12-01T19:02:03.540Z,34.00
2022-12-01T19:04:32.965Z,33.07
2022-12-01T19:06:59.995Z,30.27
2022-12-01T19:09:27.008Z,31.43
2022-12-01T19:11:59.718Z,28.33
2022-12-01T19:14:29.283Z,29.93
2022-12-01T19:16:59.664Z,32.93
2022-12-01T19:19:33.004Z,32.60
2022-12-01T19:22:05.124Z,33.17
2022-12-01T19:24:32.479Z,32.47
2022-12-01T19:26:59.570Z,34.23
2022-12-01T19:29:26.626Z,34.20
2022-12-01T19:31:56.222Z,32.50
2022-12-01T19:34:23.420Z,30.77
2022-12-01T19:36:52.354Z,30.50
2022-12-01T19:39:22.419Z,29.53
2022-12-01T19:41:49.455Z,30.07
2022-12-01T19:44:16.823Z,32.17
2022-12-01T19:46:46.790Z,31.67
2022-12-01T19:49:14.865Z,31.17
2022-12-01T19:51:44.571Z,32.67
2022-12-01T19:54:17.705Z,30.17
2022-12-01T19:56:44.980Z,31.50
2022-12-01T19:59:14.374Z,31.07
2022-12-01T20:01:42.255Z,34.40
2022-12-01T20:04:11.844Z,30.80
2022-12-01T20:06:38.984Z,33.23
2022-12-01T20:09:07.912Z,34.13
2022-12-01T20:11:37.876Z,32.70
2022-12-01T20:14:11.718Z,33.40
2022-12-01T20:16:42.304Z,32.53
2022-12-01T20:19:14.757Z,34.97
2022-12-01T20:21:45.271Z,34.10
2022-12-01T20:24:15.195Z,33.13
2022-12-01T20:26:51.933Z,36.60
2022-12-01T20:29:27.233Z,36.00
2022-12-01T20:31:57.901Z,32.47
2022-12-01T20:34:37.295Z,34.07
2022-12-01T20:37:04.810Z,33.13
2022-12-01T20:39:34.984Z,37.00
2022-12-01T20:42:03.521Z,34.67
2022-12-01T20:44:33.082Z,32.23
2022-12-01T20:47:00.332Z,36.03
2022-12-01T20:49:33.036Z,32.80
2022-12-01T20:52:03.035Z,34.67
2022-12-01T20:54:31.118Z,32.73
2022-12-01T20:56:59.377Z,33.40
2022-12-01T20:59:30.240Z,33.13
2022-12-01T21:02:03.545Z,33.87
2022-12-01T21:04:30.542Z,34.57
2022-12-01T21:07:00.271Z,35.33
2022-12-01T21:09:28.519Z,33.40
2022-12-01T21:12:17.347Z,31.07
2022-12-01T21:15:30.303Z,31.20
2022-12-01T21:18:29.192Z,30.47
2022-12-01T21:21:07.970Z,31.90
2022-12-01T21:23:35.401Z,29.37
2022-12-01T21:26:11.859Z,32.30
2022-12-01T21:28:38.972Z,32.00
2022-12-01T21:31:16.175Z,32.50
2022-12-01T21:33:43.578Z,29.10
2022-12-01T21:36:22.530Z,28.93
2022-12-01T21:38:57.928Z,28.90
2022-12-01T21:41:28.584Z,31.67
2022-12-01T21:44:21.193Z,32.73
2022-12-01T21:46:55.244Z,31.43
2022-12-01T21:49:35.700Z,30.97
2022-12-01T21:52:09.752Z,32.20
2022-12-01T21:54:36.653Z,29.37
2022-12-01T21:57:26.404Z,30.67
2022-12-01T22:00:01.110Z,30.17
2022-12-01T22:03:20.452Z,29.60
2022-12-01T22:06:27.699Z,28.13
2022-12-01T22:08:50.849Z,25.93
2022-12-01T22:11:22.252Z,26.80
2022-12-01T22:14:05.065Z,29.50
2022-12-01T22:16:34.265Z,28.27
2022-12-01T22:19:31.971Z,29.00
2022-12-01T22:22:15.653Z,29.00
2022-12-01T22:24:54.045Z,28.23
2022-12-01T22:27:43.956Z,27.40
2022-12-01T22:30:17.796Z,27.67
2022-12-01T22:33:00.673Z,26.07
2022-12-01T22:35:34.493Z,28.00
2022-12-01T22:38:28.320Z,24.80
2022-12-01T22:41:06.885Z,30.37
2022-12-01T22:43:41.816Z,28.67
2022-12-01T22:46:34.030Z,30.67
2022-12-01T22:49:10.161Z,30.97
2022-12-01T22:51:41.488Z,31.80
2022-12-01T22:54:14.562Z,33.57
2022-12-01T22:57:02.175Z,31.60
2022-12-01T22:59:35.229Z,31.43
2022-12-01T23:02:29.233Z,33.97
2022-12-01T23:05:01.047Z,33.20
2022-12-01T23:07:36.901Z,32.60
2022-12-01T23:10:18.740Z,32.60
2022-12-01T23:12:49.405Z,33.03
2022-12-01T23:15:39.000Z,31.83
2022-12-01T23:18:19.418Z,31.60
2022-12-01T23:21:07.359Z,31.70
2022-12-01T23:23:39.386Z,31.90
2022-12-01T23:26:08.784Z,34.77
2022-12-01T23:28:39.214Z,34.10
2022-12-01T23:31:06.765Z,33.20
2022-12-01T23:33:35.378Z,34.57
2022-12-01T23:36:24.457Z,32.70
2022-12-01T23:38:58.990Z,31.97
2022-12-01T23:41:41.363Z,31.50
2022-12-01T23:44:39.130Z,32.97
2022-12-01T23:47:24.158Z,32.50
2022-12-01T23:50:03.769Z,32.20
2022-12-01T23:52:37.280Z,32.53
2022-12-01T23:55:21.865Z,33.20
2022-12-01T23:57:50.494Z,31.07
